createdAt,value
2022-07-26T00:02:18.116Z,21.40
2022-07-26T00:04:48.106Z,21.36
2022-07-26T00:07:18.118Z,21.38
2022-07-26T00:09:48.556Z,21.39
2022-07-26T00:12:18.477Z,21.31
2022-07-26T00:14:48.583Z,21.20
2022-07-26T00:17:18.377Z,21.21
2022-07-26T00:19:47.854Z,20.99
2022-07-26T00:22:36.727Z,20.88
2022-07-26T00:25:08.710Z,20.83
2022-07-26T00:27:38.528Z,20.75
2022-07-26T00:30:10.393Z,20.67
2022-07-26T00:32:39.818Z,20.53
2022-07-26T00:35:10.308Z,20.43
2022-07-26T00:37:40.243Z,20.54
2022-07-26T00:40:11.931Z,20.56
2022-07-26T00:42:41.549Z,20.41
2022-07-26T00:45:13.931Z,20.30
2022-07-26T00:47:44.190Z,20.25
2022-07-26T00:50:16.733Z,20.34
2022-07-26T00:52:48.076Z,20.37
2022-07-26T00:55:18.470Z,20.29
2022-07-26T00:57:48.010Z,20.37
2022-07-26T01:00:21.761Z,20.45
2022-07-26T01:02:51.153Z,20.42
2022-07-26T01:05:20.450Z,20.35
2022-07-26T01:07:50.926Z,20.29
2022-07-26T01:10:20.346Z,20.24
2022-07-26T01:12:49.619Z,20.22
2022-07-26T01:15:19.082Z,20.17
2022-07-26T01:17:48.357Z,20.03
2022-07-26T01:20:17.589Z,20.13
2022-07-26T01:22:46.852Z,20.27
2022-07-26T01:25:16.103Z,20.28
2022-07-26T01:27:45.630Z,20.09
2022-07-26T01:30:16.483Z,20.06
2022-07-26T01:32:45.654Z,19.96
2022-07-26T01:35:14.962Z,19.90
2022-07-26T01:37:44.210Z,19.92
2022-07-26T01:40:14.661Z,19.93
2022-07-26T01:42:43.923Z,19.92
2022-07-26T01:45:13.855Z,19.83
2022-07-26T01:47:44.396Z,19.71
2022-07-26T01:50:13.697Z,19.76
2022-07-26T01:52:42.916Z,19.79
2022-07-26T01:55:12.644Z,19.76
2022-07-26T01:57:42.328Z,19.66
2022-07-26T02:00:14.716Z,19.77
2022-07-26T02:02:43.955Z,19.84
2022-07-26T02:05:13.260Z,19.85
2022-07-26T02:07:44.605Z,19.77
2022-07-26T02:10:15.135Z,19.71
2022-07-26T02:12:44.491Z,19.76
2022-07-26T02:15:15.179Z,19.72
2022-07-26T02:17:44.552Z,19.63
2022-07-26T02:20:16.611Z,19.54
2022-07-26T02:22:45.801Z,19.62
2022-07-26T02:25:14.865Z,19.54
2022-07-26T02:27:44.039Z,19.43
2022-07-26T02:30:14.453Z,19.40
2022-07-26T02:32:43.881Z,19.43
2022-07-26T02:35:14.872Z,19.41
2022-07-26T02:37:44.145Z,19.26
2022-07-26T02:40:19.046Z,19.27
2022-07-26T02:42:49.620Z,19.32
2022-07-26T02:45:19.057Z,19.26
2022-07-26T02:47:49.666Z,19.21
2022-07-26T02:50:19.734Z,19.13
2022-07-26T02:52:49.666Z,19.16
2022-07-26T02:55:20.052Z,19.30
2022-07-26T02:57:49.698Z,19.41
2022-07-26T03:00:21.652Z,19.46
2022-07-26T03:02:51.674Z,19.57
2022-07-26T03:05:21.680Z,19.61
2022-07-26T03:07:51.039Z,19.55
2022-07-26T03:10:20.243Z,19.59
2022-07-26T03:12:49.468Z,19.56
2022-07-26T03:15:18.663Z,19.56
2022-07-26T03:17:47.917Z,19.51
2022-07-26T03:20:17.251Z,19.53
2022-07-26T03:22:46.451Z,19.72
2022-07-26T03:25:16.203Z,19.87
2022-07-26T03:27:45.527Z,20.06
2022-07-26T03:35:12.806Z,20.35
2022-07-26T04:16:55.335Z,21.91
2022-07-26T04:19:25.367Z,21.95
2022-07-26T04:21:54.577Z,21.88
2022-07-26T04:24:25.761Z,21.83
2022-07-26T04:26:55.152Z,22.04
2022-07-26T04:29:24.340Z,22.26
2022-07-26T04:31:53.510Z,22.50
2022-07-26T04:34:22.816Z,22.93
2022-07-26T04:36:52.415Z,23.31
2022-07-26T04:39:24.318Z,23.79
2022-07-26T04:41:53.586Z,24.16
2022-07-26T04:44:22.830Z,24.59
2022-07-26T04:46:52.124Z,24.69
2022-07-26T04:49:21.331Z,24.63
2022-07-26T04:51:50.576Z,24.61
2022-07-26T04:54:22.525Z,24.68
2022-07-26T04:56:51.901Z,24.67
2022-07-26T04:59:22.017Z,24.68
2022-07-26T05:01:51.605Z,24.75
2022-07-26T05:04:20.929Z,24.66
2022-07-26T05:06:50.132Z,24.57
2022-07-26T05:09:19.310Z,24.41
2022-07-26T05:11:48.521Z,24.37
2022-07-26T05:14:17.697Z,24.39
2022-07-26T05:16:47.182Z,24.32
2022-07-26T05:19:16.498Z,24.11
2022-07-26T05:21:45.756Z,24.06
2022-07-26T05:24:15.098Z,24.06
2022-07-26T05:26:44.518Z,24.11
2022-07-26T05:29:13.861Z,24.10
2022-07-26T05:31:43.103Z,24.10
2022-07-26T05:34:13.600Z,24.22
2022-07-26T05:36:42.863Z,24.33
2022-07-26T05:39:15.884Z,24.42
2022-07-26T05:41:45.736Z,24.63
2022-07-26T05:44:15.151Z,24.77
2022-07-26T05:46:44.417Z,24.90
2022-07-26T05:49:13.706Z,24.95
2022-07-26T05:51:43.240Z,25.16
2022-07-26T05:54:12.534Z,25.29
2022-07-26T05:56:41.878Z,25.23
2022-07-26T05:59:12.339Z,25.32
2022-07-26T06:01:41.500Z,25.15
2022-07-26T06:04:11.263Z,25.18
2022-07-26T06:06:41.186Z,25.34
2022-07-26T06:09:10.557Z,25.37
2022-07-26T06:11:40.100Z,25.48
2022-07-26T06:14:09.590Z,25.50
2022-07-26T06:16:39.176Z,25.65
2022-07-26T06:19:08.445Z,25.80
2022-07-26T06:21:39.881Z,25.83
2022-07-26T06:24:10.080Z,25.88
2022-07-26T06:26:39.885Z,25.99
2022-07-26T06:29:09.692Z,26.11
2022-07-26T06:31:39.071Z,26.36
2022-07-26T06:34:10.013Z,26.51
2022-07-26T06:36:39.724Z,26.69
2022-07-26T06:39:09.311Z,26.79
2022-07-26T06:41:38.684Z,26.86
2022-07-26T06:44:08.160Z,27.04
2022-07-26T06:46:37.894Z,27.02
2022-07-26T06:49:07.319Z,27.12
2022-07-26T06:51:37.190Z,27.25
2022-07-26T06:54:07.113Z,27.28
2022-07-26T06:56:36.672Z,27.28
2022-07-26T06:59:09.395Z,27.32
2022-07-26T07:01:58.272Z,27.37
2022-07-26T07:04:29.648Z,27.58
2022-07-26T07:07:02.372Z,27.80
2022-07-26T07:09:35.375Z,27.87
2022-07-26T07:12:09.424Z,27.89
2022-07-26T07:14:40.059Z,27.93
2022-07-26T07:17:10.391Z,27.86
2022-07-26T07:19:42.553Z,27.97
2022-07-26T07:22:12.639Z,28.02
2022-07-26T07:24:42.594Z,28.14
2022-07-26T07:27:12.196Z,28.18
2022-07-26T07:29:43.106Z,28.24
2022-07-26T07:32:15.726Z,28.29
2022-07-26T07:34:48.215Z,28.35
2022-07-26T07:37:19.904Z,28.36
2022-07-26T07:39:50.945Z,28.27
2022-07-26T07:42:20.985Z,28.22
2022-07-26T07:44:50.338Z,28.37
2022-07-26T07:47:19.845Z,28.37
2022-07-26T07:49:49.427Z,28.35
2022-07-26T07:52:20.447Z,28.34
2022-07-26T07:54:50.362Z,28.37
2022-07-26T07:57:21.320Z,28.43
2022-07-26T07:59:59.133Z,28.44
2022-07-26T08:02:30.393Z,28.37
2022-07-26T08:05:14.170Z,28.27
2022-07-26T08:07:47.629Z,28.20
2022-07-26T08:10:17.928Z,28.22
2022-07-26T08:12:47.326Z,28.15
2022-07-26T08:15:21.871Z,28.02
2022-07-26T08:17:54.715Z,27.94
2022-07-26T08:20:25.775Z,27.88
2022-07-26T08:22:58.278Z,27.86
2022-07-26T08:25:27.665Z,27.86
2022-07-26T08:28:04.433Z,27.70
2022-07-26T08:30:41.942Z,27.67
2022-07-26T08:33:14.405Z,27.71
2022-07-26T08:35:57.066Z,27.71
2022-07-26T08:38:53.412Z,27.72
2022-07-26T08:41:30.424Z,27.98
2022-07-26T08:44:32.736Z,28.19
2022-07-26T08:47:50.309Z,28.26
2022-07-26T08:50:31.908Z,28.19
2022-07-26T08:53:00.991Z,28.03
2022-07-26T08:55:50.234Z,27.81
2022-07-26T08:58:19.792Z,27.87
2022-07-26T09:01:03.057Z,27.88
2022-07-26T09:03:34.722Z,27.98
2022-07-26T09:06:15.196Z,28.13
2022-07-26T09:08:45.534Z,28.18
2022-07-26T09:11:34.570Z,28.06
2022-07-26T09:14:05.843Z,28.01
2022-07-26T09:16:39.709Z,28.21
2022-07-26T09:19:27.054Z,28.25
2022-07-26T09:21:57.774Z,28.07
2022-07-26T09:24:51.125Z,28.11
2022-07-26T09:27:23.152Z,27.99
2022-07-26T09:29:54.855Z,27.99
2022-07-26T09:32:26.170Z,27.88
2022-07-26T09:35:00.902Z,27.67
2022-07-26T09:37:38.563Z,27.50
2022-07-26T09:40:13.195Z,27.49
2022-07-26T09:42:58.757Z,27.50
2022-07-26T09:45:30.234Z,27.21
2022-07-26T09:48:00.095Z,27.05
2022-07-26T09:50:31.231Z,26.99
2022-07-26T09:53:09.844Z,26.92
2022-07-26T09:55:56.582Z,26.96
2022-07-26T09:58:27.357Z,26.95
2022-07-26T10:01:02.209Z,26.84
2022-07-26T10:03:34.579Z,26.49
2022-07-26T10:06:05.282Z,26.43
2022-07-26T10:08:34.673Z,26.49
2022-07-26T10:11:07.570Z,26.53
2022-07-26T10:13:39.173Z,26.43
2022-07-26T10:16:30.901Z,26.26
2022-07-26T10:22:56.457Z,25.91
2022-07-26T10:25:47.890Z,26.01
2022-07-26T10:28:31.137Z,26.09
2022-07-26T10:31:30.147Z,25.97
2022-07-26T10:34:01.249Z,26.02
2022-07-26T10:36:33.606Z,25.97
2022-07-26T10:39:11.641Z,26.05
2022-07-26T10:41:48.087Z,26.01
2022-07-26T10:44:28.359Z,26.06
2022-07-26T10:50:54.021Z,25.93
2022-07-26T10:53:27.057Z,25.80
2022-07-26T10:55:58.580Z,25.51
2022-07-26T10:58:28.836Z,25.45
2022-07-26T11:01:05.916Z,25.40
2022-07-26T11:03:39.190Z,25.35
2022-07-26T11:06:14.264Z,25.25
2022-07-26T11:08:51.082Z,25.25
2022-07-26T11:11:31.927Z,25.28
2022-07-26T11:14:12.503Z,25.23
2022-07-26T11:16:43.999Z,25.08
2022-07-26T11:19:19.869Z,24.99
2022-07-26T11:21:59.760Z,24.96
2022-07-26T11:24:29.914Z,25.06
2022-07-26T11:27:05.107Z,25.07
2022-07-26T11:29:41.183Z,24.97
2022-07-26T11:32:18.773Z,24.92
2022-07-26T11:35:02.727Z,24.92
2022-07-26T11:37:32.789Z,24.96
2022-07-26T11:40:05.416Z,24.83
2022-07-26T11:42:37.222Z,24.52
2022-07-26T11:45:17.782Z,24.28
2022-07-26T11:47:58.912Z,24.18
2022-07-26T11:54:11.744Z,24.13
2022-07-26T11:56:52.611Z,24.19
2022-07-26T11:59:24.350Z,24.15
2022-07-26T12:02:24.326Z,24.01
2022-07-26T12:05:30.195Z,23.82
2022-07-26T12:08:04.407Z,23.83
2022-07-26T12:10:37.228Z,23.94
2022-07-26T12:13:14.915Z,24.08
2022-07-26T12:15:52.282Z,24.02
2022-07-26T12:18:37.904Z,24.01
2022-07-26T12:21:09.574Z,23.96
2022-07-26T12:24:36.428Z,23.95
2022-07-26T12:27:15.449Z,23.93
2022-07-26T12:29:50.188Z,23.95
2022-07-26T12:32:22.158Z,23.81
2022-07-26T12:35:00.502Z,23.87
2022-07-26T12:38:01.690Z,23.84
2022-07-26T12:41:21.585Z,23.84
2022-07-26T12:43:56.908Z,23.92
2022-07-26T12:46:28.140Z,23.91
2022-07-26T12:49:00.571Z,23.87
2022-07-26T12:51:46.814Z,23.85
2022-07-26T12:54:33.015Z,23.80
2022-07-26T12:57:16.522Z,23.87
2022-07-26T12:59:54.497Z,23.82
2022-07-26T13:02:24.796Z,23.86
2022-07-26T13:05:00.380Z,23.82
2022-07-26T13:07:33.496Z,23.78
2022-07-26T13:13:02.091Z,23.97
2022-07-26T13:15:44.556Z,24.05
2022-07-26T13:18:24.235Z,24.21
2022-07-26T13:20:57.066Z,24.27
2022-07-26T13:23:27.029Z,24.31
2022-07-26T13:25:56.599Z,24.30
2022-07-26T13:28:28.923Z,24.27
2022-07-26T13:30:58.943Z,24.20
2022-07-26T13:33:32.411Z,24.16
2022-07-26T13:40:31.257Z,24.34
2022-07-26T13:43:04.097Z,24.27
2022-07-26T13:45:33.774Z,24.18
2022-07-26T13:48:06.345Z,24.08
2022-07-26T13:51:06.716Z,24.03
2022-07-26T13:53:52.315Z,24.03
2022-07-26T13:56:28.776Z,23.84
2022-07-26T13:59:09.567Z,23.85
2022-07-26T14:01:43.129Z,23.82
2022-07-26T14:04:18.247Z,23.85
2022-07-26T14:06:48.418Z,23.76
2022-07-26T14:09:23.003Z,23.67
2022-07-26T14:11:57.456Z,23.59
2022-07-26T14:14:43.210Z,23.61
2022-07-26T14:17:19.255Z,23.43
2022-07-26T14:19:52.293Z,23.46
2022-07-26T14:23:28.788Z,23.46
2022-07-26T14:57:30.522Z,23.65
2022-07-26T15:23:23.442Z,23.24
2022-07-26T15:26:39.483Z,23.26
2022-07-26T15:30:29.242Z,23.22
2022-07-26T15:32:02.203Z,23.22
2022-07-26T15:34:31.862Z,23.11
2022-07-26T15:37:04.740Z,22.94
2022-07-26T15:39:36.444Z,22.88
2022-07-26T15:42:07.805Z,22.90
2022-07-26T15:44:39.934Z,22.85
2022-07-26T15:55:12.795Z,22.85
2022-07-26T15:58:24.383Z,22.86
2022-07-26T16:10:16.087Z,23.00
2022-07-26T16:16:46.275Z,22.68
2022-07-26T16:23:34.209Z,22.61
2022-07-26T16:27:04.859Z,22.73
2022-07-26T16:30:37.032Z,22.60
2022-07-26T16:41:28.644Z,22.64
2022-07-26T16:52:06.401Z,22.74
2022-07-26T16:55:21.673Z,22.68
2022-07-26T16:58:37.587Z,22.69
2022-07-26T17:05:20.486Z,22.87
2022-07-26T17:09:12.864Z,22.95
2022-07-26T17:12:04.242Z,23.11
2022-07-26T17:14:59.736Z,23.07
2022-07-26T17:18:42.945Z,23.07
2022-07-26T17:21:32.954Z,23.02
2022-07-26T17:24:13.624Z,22.99
2022-07-26T17:27:06.817Z,23.01
2022-07-26T17:30:04.374Z,22.98
2022-07-26T17:36:17.227Z,23.11
2022-07-26T17:39:04.011Z,23.12
2022-07-26T17:41:59.967Z,23.22
2022-07-26T17:45:04.176Z,23.15
2022-07-26T17:47:40.980Z,23.23
2022-07-26T17:50:51.065Z,23.15
2022-07-26T17:53:21.710Z,23.06
2022-07-26T17:56:17.505Z,23.12
2022-07-26T17:59:02.107Z,23.16
2022-07-26T18:01:40.047Z,23.00
2022-07-26T18:04:36.450Z,23.00
2022-07-26T18:07:06.716Z,22.97
2022-07-26T18:09:43.073Z,22.91
2022-07-26T18:12:35.313Z,22.85
2022-07-26T18:15:06.858Z,22.77
2022-07-26T18:17:57.279Z,22.77
2022-07-26T18:20:38.421Z,22.61
2022-07-26T18:23:22.132Z,22.53
2022-07-26T18:28:52.942Z,22.51
2022-07-26T18:31:31.018Z,22.47
2022-07-26T18:34:06.726Z,22.59
2022-07-26T18:36:42.194Z,22.64
2022-07-26T18:39:22.111Z,22.54
2022-07-26T18:42:00.086Z,22.50
2022-07-26T18:44:32.341Z,22.41
2022-07-26T18:47:06.330Z,22.41
2022-07-26T18:49:37.050Z,22.50
2022-07-26T18:52:13.441Z,22.45
2022-07-26T18:54:49.251Z,22.36
2022-07-26T18:57:27.911Z,22.25
2022-07-26T19:00:17.895Z,22.15
2022-07-26T19:02:48.460Z,22.16
2022-07-26T19:05:17.938Z,21.95
2022-07-26T19:07:47.558Z,21.67
2022-07-26T19:10:19.882Z,21.63
2022-07-26T19:12:49.455Z,21.63
2022-07-26T19:15:19.628Z,21.60
2022-07-26T19:17:49.020Z,21.57
2022-07-26T19:20:19.642Z,21.55
2022-07-26T19:23:10.664Z,21.45
2022-07-26T19:26:01.528Z,21.61
2022-07-26T19:29:07.083Z,21.68
2022-07-26T19:31:36.832Z,21.79
2022-07-26T19:34:07.225Z,21.67
2022-07-26T19:36:46.400Z,21.53
2022-07-26T19:39:35.260Z,21.40
2022-07-26T19:42:29.505Z,21.41
2022-07-26T19:45:12.214Z,21.39
2022-07-26T19:48:31.308Z,21.41
2022-07-26T19:51:18.352Z,21.44
2022-07-26T19:53:53.020Z,21.36
2022-07-26T19:56:22.804Z,21.37
2022-07-26T19:59:03.494Z,21.44
2022-07-26T20:01:47.888Z,21.39
2022-07-26T20:04:18.673Z,21.20
2022-07-26T20:06:51.396Z,21.08
2022-07-26T20:09:23.043Z,21.01
2022-07-26T20:12:09.392Z,21.13
2022-07-26T20:14:56.823Z,21.03
2022-07-26T20:17:33.055Z,20.97
2022-07-26T20:20:31.141Z,20.89
2022-07-26T20:23:08.367Z,20.88
2022-07-26T20:25:43.932Z,20.72
2022-07-26T20:28:23.429Z,20.74
2022-07-26T20:30:54.757Z,20.81
2022-07-26T20:33:32.291Z,20.81
2022-07-26T20:36:02.215Z,20.73
2022-07-26T20:39:02.297Z,20.80
2022-07-26T20:41:54.235Z,20.89
2022-07-26T20:44:47.495Z,20.82
2022-07-26T20:47:18.906Z,20.82
2022-07-26T20:49:58.493Z,20.70
2022-07-26T20:52:37.128Z,20.63
2022-07-26T20:55:06.770Z,20.59
2022-07-26T20:57:36.776Z,20.62
2022-07-26T21:00:12.774Z,20.59
2022-07-26T21:02:45.530Z,20.67
2022-07-26T21:05:15.361Z,20.67
2022-07-26T21:07:59.305Z,20.76
2022-07-26T21:10:49.647Z,20.69
2022-07-26T21:14:07.185Z,20.80
2022-07-26T21:16:37.027Z,20.79
2022-07-26T21:19:06.870Z,20.75
2022-07-26T21:21:37.845Z,20.64
2022-07-26T21:24:35.927Z,20.65
2022-07-26T21:27:54.434Z,20.81
2022-07-26T21:31:01.492Z,20.91
2022-07-26T21:34:14.898Z,20.81
2022-07-26T21:37:28.657Z,20.74
2022-07-26T21:40:21.151Z,20.70
2022-07-26T21:46:19.976Z,20.59
2022-07-26T21:49:24.898Z,20.61
2022-07-26T21:52:05.205Z,20.71
2022-07-26T21:54:34.476Z,20.67
2022-07-26T21:57:04.057Z,20.74
2022-07-26T21:59:33.471Z,20.74
2022-07-26T22:02:56.020Z,20.72
2022-07-26T22:05:35.457Z,20.67
2022-07-26T22:08:07.150Z,20.70
2022-07-26T22:10:43.458Z,20.56
2022-07-26T22:13:14.781Z,20.67
2022-07-26T22:15:44.307Z,20.70
2022-07-26T22:19:13.349Z,20.79
2022-07-26T22:21:47.687Z,20.86
2022-07-26T22:24:18.166Z,20.70
2022-07-26T22:27:10.014Z,20.72
2022-07-26T22:29:40.623Z,20.71
2022-07-26T22:32:10.239Z,20.75
2022-07-26T22:34:56.891Z,20.77
2022-07-26T22:37:27.815Z,20.70
2022-07-26T22:39:57.183Z,20.74
2022-07-26T22:42:35.380Z,20.76
2022-07-26T22:45:09.954Z,20.72
2022-07-26T22:47:39.817Z,20.72
2022-07-26T22:50:27.831Z,20.61
2022-07-26T22:53:00.647Z,20.58
2022-07-26T22:55:30.730Z,20.44
2022-07-26T22:58:04.490Z,20.44
2022-07-26T23:00:34.166Z,20.59
2022-07-26T23:03:19.738Z,20.60
2022-07-26T23:05:52.237Z,20.51
2022-07-26T23:08:47.193Z,20.56
2022-07-26T23:11:17.016Z,20.58
2022-07-26T23:13:46.553Z,20.53
2022-07-26T23:16:16.604Z,20.37
2022-07-26T23:18:52.049Z,20.32
2022-07-26T23:21:28.157Z,20.13
2022-07-26T23:23:57.799Z,20.08
2022-07-26T23:26:27.460Z,20.16
2022-07-26T23:29:02.122Z,20.19
2022-07-26T23:31:34.631Z,20.15
2022-07-26T23:34:09.830Z,20.11
2022-07-26T23:36:40.789Z,20.15
2022-07-26T23:39:22.525Z,20.29
2022-07-26T23:41:52.340Z,20.22
2022-07-26T23:44:22.039Z,20.25
2022-07-26T23:46:53.531Z,20.22
2022-07-26T23:49:24.893Z,20.15
2022-07-26T23:51:54.884Z,20.19
2022-07-26T23:54:24.875Z,20.27
2022-07-26T23:57:12.224Z,20.20
2022-07-26T23:59:42.260Z,20.29
